KEVV/EVV METAR and TAF weather

Enter ICAO airport designator
Station Type Date Time Source
KEVV METAR 2019/04/22 23:54 UTC NOAA

KEVV 222354Z 18009KT 10SM CLR 24/09 A3002 RMK AO2 SLP162 T02390094 10261 20239 56017


Station Type Date Time Source
KEVV Decoded METAR 2019/04/22 23:54 UTC NOAA

EVANSVILLE REGIONAL, IN, United States (KEVV) 38-02N 087-32W 117M
Apr 22, 2019 - 07:54 PM EDT / 2019.04.22 2354 UTC
Wind: from the S (180 degrees) at 10 MPH (9 KT):0
Visibility: 10 mile(s):0
Sky conditions: clear
Temperature: 75.0 F (23.9 C)
Dew Point: 48.9 F (9.4 C)
Relative Humidity: 39%
Pressure (altimeter): 30.02 in. Hg (1016 hPa)
Pressure tendency: 0.05 inches (1.7 hPa) lower than three hours ago
ob: KEVV 222354Z 18009KT 10SM CLR 24/09 A3002 RMK AO2 SLP162 T02390094 10261 20239 56017
cycle: 0

Station Type Date Time Source
KEVV TAF 2019/04/22 19:21 UTC NOAA

TAF
AMD KEVV 221918Z 2219/2318 22011KT P6SM SCT250
TEMPO 2219/2223 23012G19KT
FM230100 20007KT P6SM SCT200
FM231300 23008KT P6SM BKN070
FM231600 24009KT P6SM BKN030

Example: see airport list